sensor_id;sensor_type;location;lat;lon;timestamp;pressure;altitude;pressure_sealevel;temperature;humidity
15487;BME280;7845;53.698;10.078;2023-03-29T00:01:36;101652.16;;;7.71;100.00
15487;BME280;7845;53.698;10.078;2023-03-29T00:04:07;101641.00;;;7.75;100.00
15487;BME280;7845;53.698;10.078;2023-03-29T00:06:34;101646.16;;;7.74;100.00
15487;BME280;7845;53.698;10.078;2023-03-29T00:08:59;101636.59;;;7.71;100.00
15487;BME280;7845;53.698;10.078;2023-03-29T00:11:28;101641.72;;;7.67;100.00
15487;BME280;7845;53.698;10.078;2023-03-29T00:13:56;101640.94;;;7.74;100.00
15487;BME280;7845;53.698;10.078;2023-03-29T00:16:22;101630.34;;;7.62;100.00
15487;BME280;7845;53.698;10.078;2023-03-29T00:18:47;101640.59;;;7.54;100.00
15487;BME280;7845;53.698;10.078;2023-03-29T00:21:19;101635.38;;;7.53;100.00
15487;BME280;7845;53.698;10.078;2023-03-29T00:23:47;101638.84;;;7.52;100.00
15487;BME280;7845;53.698;10.078;2023-03-29T00:26:12;101638.00;;;7.54;100.00
15487;BME280;7845;53.698;10.078;2023-03-29T00:28:40;101633.72;;;7.56;100.00
15487;BME280;7845;53.698;10.078;2023-03-29T00:31:14;101632.81;;;7.56;100.00
15487;BME280;7845;53.698;10.078;2023-03-29T00:33:46;101631.09;;;7.55;100.00
15487;BME280;7845;53.698;10.078;2023-03-29T00:36:11;101630.16;;;7.53;100.00
15487;BME280;7845;53.698;10.078;2023-03-29T00:38:38;101630.44;;;7.66;100.00
15487;BME280;7845;53.698;10.078;2023-03-29T00:41:05;101615.72;;;7.67;100.00
15487;BME280;7845;53.698;10.078;2023-03-29T00:43:50;101607.59;;;7.49;100.00
15487;BME280;7845;53.698;10.078;2023-03-29T00:46:18;101610.19;;;7.49;100.00
15487;BME280;7845;53.698;10.078;2023-03-29T00:48:44;101598.94;;;7.50;100.00
15487;BME280;7845;53.698;10.078;2023-03-29T00:51:10;101591.97;;;7.47;100.00
15487;BME280;7845;53.698;10.078;2023-03-29T00:53:50;101578.16;;;7.48;100.00
15487;BME280;7845;53.698;10.078;2023-03-29T00:56:21;101581.34;;;7.34;100.00
15487;BME280;7845;53.698;10.078;2023-03-29T00:59:04;101578.22;;;7.51;100.00
15487;BME280;7845;53.698;10.078;2023-03-29T01:01:56;101570.19;;;7.38;100.00
15487;BME280;7845;53.698;10.078;2023-03-29T01:04:44;101571.97;;;7.42;100.00
15487;BME280;7845;53.698;10.078;2023-03-29T01:09:58;101559.88;;;7.44;100.00
15487;BME280;7845;53.698;10.078;2023-03-29T01:12:31;101553.78;;;7.40;100.00
15487;BME280;7845;53.698;10.078;2023-03-29T01:15:12;101557.28;;;7.42;100.00
15487;BME280;7845;53.698;10.078;2023-03-29T01:17:41;101548.53;;;7.39;100.00
15487;BME280;7845;53.698;10.078;2023-03-29T01:20:22;101549.41;;;7.38;100.00
15487;BME280;7845;53.698;10.078;2023-03-29T01:28:32;101533.91;;;7.42;100.00
15487;BME280;7845;53.698;10.078;2023-03-29T01:31:46;101521.69;;;7.37;100.00
15487;BME280;7845;53.698;10.078;2023-03-29T01:34:08;101525.16;;;7.37;100.00
15487;BME280;7845;53.698;10.078;2023-03-29T01:36:39;101528.63;;;7.38;100.00
15487;BME280;7845;53.698;10.078;2023-03-29T01:39:07;101525.16;;;7.37;100.00
15487;BME280;7845;53.698;10.078;2023-03-29T01:41:51;101515.56;;;7.33;100.00
15487;BME280;7845;53.698;10.078;2023-03-29T01:44:31;101508.59;;;7.31;100.00
15487;BME280;7845;53.698;10.078;2023-03-29T01:50:12;101502.34;;;7.19;100.00
15487;BME280;7845;53.698;10.078;2023-03-29T01:52:46;101499.75;;;7.21;100.00
15487;BME280;7845;53.698;10.078;2023-03-29T01:55:17;101501.53;;;7.22;100.00
15487;BME280;7845;53.698;10.078;2023-03-29T01:57:52;101495.41;;;7.18;100.00
15487;BME280;7845;53.698;10.078;2023-03-29T02:00:24;101489.41;;;7.22;100.00
15487;BME280;7845;53.698;10.078;2023-03-29T02:02:56;101485.13;;;7.26;100.00
15487;BME280;7845;53.698;10.078;2023-03-29T02:05:25;101477.28;;;7.23;100.00
15487;BME280;7845;53.698;10.078;2023-03-29T02:07:53;101476.34;;;7.18;100.00
15487;BME280;7845;53.698;10.078;2023-03-29T02:10:28;101472.81;;;7.14;100.00
15487;BME280;7845;53.698;10.078;2023-03-29T02:12:54;101470.94;;;7.06;100.00
15487;BME280;7845;53.698;10.078;2023-03-29T02:15:21;101464.75;;;6.99;100.00
15487;BME280;7845;53.698;10.078;2023-03-29T02:17:48;101458.63;;;6.93;100.00
15487;BME280;7845;53.698;10.078;2023-03-29T02:20:22;101452.38;;;6.83;100.00
15487;BME280;7845;53.698;10.078;2023-03-29T02:23:08;101455.63;;;6.73;100.00
15487;BME280;7845;53.698;10.078;2023-03-29T02:25:45;101466.84;;;6.72;100.00
15487;BME280;7845;53.698;10.078;2023-03-29T02:28:10;101460.56;;;6.59;100.00
15487;BME280;7845;53.698;10.078;2023-03-29T02:30:50;101458.00;;;6.61;100.00
15487;BME280;7845;53.698;10.078;2023-03-29T02:33:26;101462.47;;;6.68;100.00
15487;BME280;7845;53.698;10.078;2023-03-29T02:35:59;101451.84;;;6.56;100.00
15487;BME280;7845;53.698;10.078;2023-03-29T02:38:27;101456.03;;;6.49;100.00
15487;BME280;7845;53.698;10.078;2023-03-29T02:40:55;101450.91;;;6.51;100.00
15487;BME280;7845;53.698;10.078;2023-03-29T02:43:23;101455.28;;;6.53;100.00
15487;BME280;7845;53.698;10.078;2023-03-29T02:45:50;101444.91;;;6.53;100.00
15487;BME280;7845;53.698;10.078;2023-03-29T02:48:19;101447.53;;;6.56;100.00
15487;BME280;7845;53.698;10.078;2023-03-29T02:50:47;101444.97;;;6.58;100.00
15487;BME280;7845;53.698;10.078;2023-03-29T02:53:22;101438.13;;;6.60;100.00
15487;BME280;7845;53.698;10.078;2023-03-29T02:55:51;101434.47;;;6.50;100.00
15487;BME280;7845;53.698;10.078;2023-03-29T02:58:19;101427.56;;;6.51;100.00
15487;BME280;7845;53.698;10.078;2023-03-29T03:00:46;101424.97;;;6.51;100.00
15487;BME280;7845;53.698;10.078;2023-03-29T03:03:15;101418.91;;;6.52;100.00
15487;BME280;7845;53.698;10.078;2023-03-29T03:05:42;101415.50;;;6.54;100.00
15487;BME280;7845;53.698;10.078;2023-03-29T03:08:08;101406.13;;;6.59;100.00
15487;BME280;7845;53.698;10.078;2023-03-29T03:10:37;101410.38;;;6.56;100.00
15487;BME280;7845;53.698;10.078;2023-03-29T03:13:03;101398.22;;;6.55;100.00
15487;BME280;7845;53.698;10.078;2023-03-29T03:15:28;101398.41;;;6.64;100.00
15487;BME280;7845;53.698;10.078;2023-03-29T03:17:55;101400.22;;;6.69;100.00
15487;BME280;7845;53.698;10.078;2023-03-29T03:20:21;101389.91;;;6.73;100.00
15487;BME280;7845;53.698;10.078;2023-03-29T03:22:47;101386.47;;;6.74;100.00
15487;BME280;7845;53.698;10.078;2023-03-29T03:25:21;101383.03;;;6.75;100.00
15487;BME280;7845;53.698;10.078;2023-03-29T03:27:51;101371.81;;;6.76;100.00
15487;BME280;7845;53.698;10.078;2023-03-29T03:30:17;101369.19;;;6.74;100.00
15487;BME280;7845;53.698;10.078;2023-03-29T03:32:42;101368.31;;;6.74;100.00
15487;BME280;7845;53.698;10.078;2023-03-29T03:35:09;101359.66;;;6.73;100.00
15487;BME280;7845;53.698;10.078;2023-03-29T03:37:38;101355.34;;;6.74;100.00
15487;BME280;7845;53.698;10.078;2023-03-29T03:40:05;101357.91;;;6.72;100.00
15487;BME280;7845;53.698;10.078;2023-03-29T03:42:35;101348.28;;;6.65;100.00
15487;BME280;7845;53.698;10.078;2023-03-29T03:45:01;101344.88;;;6.67;100.00
15487;BME280;7845;53.698;10.078;2023-03-29T03:47:26;101334.44;;;6.66;100.00
15487;BME280;7845;53.698;10.078;2023-03-29T03:49:52;101330.91;;;6.61;100.00
15487;BME280;7845;53.698;10.078;2023-03-29T03:52:17;101332.56;;;6.57;100.00
15487;BME280;7845;53.698;10.078;2023-03-29T03:54:46;101328.22;;;6.55;100.00
15487;BME280;7845;53.698;10.078;2023-03-29T03:57:20;101335.13;;;6.54;100.00
15487;BME280;7845;53.698;10.078;2023-03-29T03:59:45;101324.84;;;6.60;100.00
15487;BME280;7845;53.698;10.078;2023-03-29T04:02:10;101317.94;;;6.61;100.00
15487;BME280;7845;53.698;10.078;2023-03-29T04:04:36;101312.81;;;6.64;100.00
15487;BME280;7845;53.698;10.078;2023-03-29T04:07:01;101312.81;;;6.64;100.00
15487;BME280;7845;53.698;10.078;2023-03-29T04:09:29;101310.31;;;6.70;100.00
15487;BME280;7845;53.698;10.078;2023-03-29T04:11:56;101312.94;;;6.72;100.00
15487;BME280;7845;53.698;10.078;2023-03-29T04:14:24;101320.75;;;6.72;100.00
15487;BME280;7845;53.698;10.078;2023-03-29T04:16:52;101311.25;;;6.74;100.00
15487;BME280;7845;53.698;10.078;2023-03-29T04:19:18;101308.56;;;6.69;100.00
15487;BME280;7845;53.698;10.078;2023-03-29T04:21:43;101309.44;;;6.68;100.00
15487;BME280;7845;53.698;10.078;2023-03-29T04:24:11;101309.44;;;6.68;100.00
15487;BME280;7845;53.698;10.078;2023-03-29T04:26:36;101298.94;;;6.62;100.00
15487;BME280;7845;53.698;10.078;2023-03-29T04:29:02;101296.16;;;6.51;100.00
15487;BME280;7845;53.698;10.078;2023-03-29T04:31:30;101294.44;;;6.52;100.00
15487;BME280;7845;53.698;10.078;2023-03-29T04:33:57;101300.66;;;6.61;100.00
15487;BME280;7845;53.698;10.078;2023-03-29T04:36:23;101307.56;;;6.61;100.00
15487;BME280;7845;53.698;10.078;2023-03-29T04:38:49;101300.72;;;6.63;100.00
15487;BME280;7845;53.698;10.078;2023-03-29T04:41:17;101296.31;;;6.60;100.00
15487;BME280;7845;53.698;10.078;2023-03-29T04:43:43;101289.34;;;6.56;100.00
15487;BME280;7845;53.698;10.078;2023-03-29T04:46:13;101290.28;;;6.61;100.00
15487;BME280;7845;53.698;10.078;2023-03-29T04:48:39;101292.06;;;6.64;100.00
15487;BME280;7845;53.698;10.078;2023-03-29T04:51:06;101285.22;;;6.67;100.00
15487;BME280;7845;53.698;10.078;2023-03-29T04:53:32;101291.28;;;6.69;100.00
15487;BME280;7845;53.698;10.078;2023-03-29T04:55:58;101290.44;;;6.71;100.00
15487;BME280;7845;53.698;10.078;2023-03-29T04:58:26;101286.13;;;6.71;100.00
15487;BME280;7845;53.698;10.078;2023-03-29T05:00:55;101275.78;;;6.73;100.00
15487;BME280;7845;53.698;10.078;2023-03-29T05:03:22;101273.22;;;6.74;100.00
15487;BME280;7845;53.698;10.078;2023-03-29T05:05:49;101266.25;;;6.72;100.00
15487;BME280;7845;53.698;10.078;2023-03-29T05:08:16;101267.19;;;6.77;100.00
15487;BME280;7845;53.698;10.078;2023-03-29T05:10:45;101272.34;;;6.75;100.00
15487;BME280;7845;53.698;10.078;2023-03-29T05:13:11;101267.97;;;6.73;100.00
15487;BME280;7845;53.698;10.078;2023-03-29T05:15:37;101265.41;;;6.73;100.00
15487;BME280;7845;53.698;10.078;2023-03-29T05:18:02;101267.16;;;6.75;100.00
15487;BME280;7845;53.698;10.078;2023-03-29T05:20:28;101265.41;;;6.73;100.00
15487;BME280;7845;53.698;10.078;2023-03-29T05:22:54;101269.69;;;6.72;100.00
15487;BME280;7845;53.698;10.078;2023-03-29T05:25:20;101270.63;;;6.76;100.00
15487;BME280;7845;53.698;10.078;2023-03-29T05:27:45;101265.44;;;6.76;100.00
15487;BME280;7845;53.698;10.078;2023-03-29T05:30:12;101265.44;;;6.76;100.00
15487;BME280;7845;53.698;10.078;2023-03-29T05:32:39;101265.44;;;6.76;100.00
15487;BME280;7845;53.698;10.078;2023-03-29T05:35:06;101266.28;;;6.73;100.00
15487;BME280;7845;53.698;10.078;2023-03-29T05:37:32;101260.28;;;6.77;100.00
15487;BME280;7845;53.698;10.078;2023-03-29T05:39:58;101255.94;;;6.75;100.00
15487;BME280;7845;53.698;10.078;2023-03-29T05:42:24;101249.09;;;6.80;100.00
15487;BME280;7845;53.698;10.078;2023-03-29T05:44:49;101253.44;;;6.82;100.00
15487;BME280;7845;53.698;10.078;2023-03-29T05:47:14;101245.63;;;6.79;100.00
15487;BME280;7845;53.698;10.078;2023-03-29T05:49:41;101246.59;;;6.87;100.00
15487;BME280;7845;53.698;10.078;2023-03-29T05:52:07;101245.00;;;6.97;100.00
15487;BME280;7845;53.698;10.078;2023-03-29T05:54:32;101241.66;;;7.05;100.00
15487;BME280;7845;53.698;10.078;2023-03-29T05:56:59;101234.00;;;7.14;100.00
15487;BME280;7845;53.698;10.078;2023-03-29T05:59:25;101224.53;;;7.18;100.00
15487;BME280;7845;53.698;10.078;2023-03-29T06:01:52;101226.41;;;7.28;100.00
15487;BME280;7845;53.698;10.078;2023-03-29T06:04:18;101228.25;;;7.37;100.00
15487;BME280;7845;53.698;10.078;2023-03-29T06:06:44;101230.03;;;7.42;100.00
15487;BME280;7845;53.698;10.078;2023-03-29T06:09:10;101230.06;;;7.44;100.00
15487;BME280;7845;53.698;10.078;2023-03-29T06:11:39;101226.66;;;7.48;100.00
15487;BME280;7845;53.698;10.078;2023-03-29T06:14:05;101236.19;;;7.50;100.00
15487;BME280;7845;53.698;10.078;2023-03-29T06:16:31;101234.59;;;7.58;100.00
15487;BME280;7845;53.698;10.078;2023-03-29T06:18:57;101230.31;;;7.63;100.00
15487;BME280;7845;53.698;10.078;2023-03-29T06:21:23;101225.16;;;7.68;100.00
15487;BME280;7845;53.698;10.078;2023-03-29T06:23:50;101229.56;;;7.73;100.00
15487;BME280;7845;53.698;10.078;2023-03-29T06:26:16;101213.97;;;7.75;100.00
15487;BME280;7845;53.698;10.078;2023-03-29T06:28:41;101223.56;;;7.79;100.00
15487;BME280;7845;53.698;10.078;2023-03-29T06:31:07;101229.66;;;7.86;100.00
15487;BME280;7845;53.698;10.078;2023-03-29T06:33:34;101229.69;;;7.87;100.00
15487;BME280;7845;53.698;10.078;2023-03-29T06:36:01;101235.75;;;7.86;100.00
15487;BME280;7845;53.698;10.078;2023-03-29T06:38:28;101236.69;;;7.91;100.00
15487;BME280;7845;53.698;10.078;2023-03-29T06:41:04;101239.31;;;7.96;100.00
15487;BME280;7845;53.698;10.078;2023-03-29T06:43:30;101238.56;;;8.06;100.00
15487;BME280;7845;53.698;10.078;2023-03-29T06:45:57;101236.88;;;8.12;100.00
15487;BME280;7845;53.698;10.078;2023-03-29T06:48:22;101234.31;;;8.18;100.00
15487;BME280;7845;53.698;10.078;2023-03-29T06:50:48;101223.97;;;8.20;100.00
15487;BME280;7845;53.698;10.078;2023-03-29T06:53:13;101216.25;;;8.27;100.00
15487;BME280;7845;53.698;10.078;2023-03-29T06:55:40;101217.25;;;8.43;100.00
15487;BME280;7845;53.698;10.078;2023-03-29T06:58:05;101204.28;;;8.46;100.00
15487;BME280;7845;53.698;10.078;2023-03-29T07:00:32;101200.88;;;8.58;100.00
15487;BME280;7845;53.698;10.078;2023-03-29T07:03:04;101207.94;;;8.71;100.00
15487;BME280;7845;53.698;10.078;2023-03-29T07:05:31;101206.22;;;8.76;100.00
15487;BME280;7845;53.698;10.078;2023-03-29T07:07:57;101210.56;;;8.78;100.00
15487;BME280;7845;53.698;10.078;2023-03-29T07:10:41;101207.16;;;8.87;100.00
15487;BME280;7845;53.698;10.078;2023-03-29T07:13:09;101216.72;;;8.88;100.00
15487;BME280;7845;53.698;10.078;2023-03-29T07:15:38;101208.03;;;8.90;100.00
15487;BME280;7845;53.698;10.078;2023-03-29T07:18:04;101214.16;;;8.97;100.00
15487;BME280;7845;53.698;10.078;2023-03-29T07:20:31;101209.88;;;9.07;100.00
15487;BME280;7845;53.698;10.078;2023-03-29T07:22:58;101206.44;;;9.12;100.00
15487;BME280;7845;53.698;10.078;2023-03-29T07:25:24;101198.66;;;9.17;100.00
15487;BME280;7845;53.698;10.078;2023-03-29T07:27:52;101202.09;;;9.14;100.00
15487;BME280;7845;53.698;10.078;2023-03-29T07:30:20;101202.16;;;9.26;100.00
15487;BME280;7845;53.698;10.078;2023-03-29T07:32:48;101199.56;;;9.25;100.00
15487;BME280;7845;53.698;10.078;2023-03-29T07:35:13;101203.09;;;9.40;100.00
15487;BME280;7845;53.698;10.078;2023-03-29T07:37:40;101199.59;;;9.35;100.00
15487;BME280;7845;53.698;10.078;2023-03-29T07:40:08;101200.56;;;9.56;100.00
15487;BME280;7845;53.698;10.078;2023-03-29T07:42:46;101195.38;;;9.74;100.00
15487;BME280;7845;53.698;10.078;2023-03-29T07:45:13;101194.56;;;9.85;100.00
15487;BME280;7845;53.698;10.078;2023-03-29T07:47:41;101185.88;;;10.03;100.00
15487;BME280;7845;53.698;10.078;2023-03-29T07:50:08;101191.16;;;10.15;100.00
15487;BME280;7845;53.698;10.078;2023-03-29T07:52:35;101174.59;;;10.28;100.00
15487;BME280;7845;53.698;10.078;2023-03-29T07:55:05;101177.22;;;10.43;100.00
15487;BME280;7845;53.698;10.078;2023-03-29T07:57:31;101174.59;;;10.49;100.00
15487;BME280;7845;53.698;10.078;2023-03-29T07:59:57;101162.41;;;10.53;100.00
15487;BME280;7845;53.698;10.078;2023-03-29T08:02:23;101159.81;;;10.50;100.00
15487;BME280;7845;53.698;10.078;2023-03-29T08:04:49;101159.84;;;10.33;100.00
15487;BME280;7845;53.698;10.078;2023-03-29T08:07:16;101165.06;;;10.30;100.00
15487;BME280;7845;53.698;10.078;2023-03-29T08:09:44;101158.06;;;10.34;100.00
15487;BME280;7845;53.698;10.078;2023-03-29T08:12:09;101159.81;;;10.29;100.00
15487;BME280;7845;53.698;10.078;2023-03-29T08:14:35;101164.16;;;10.31;100.00
15487;BME280;7845;53.698;10.078;2023-03-29T08:17:01;101158.06;;;10.37;100.00
15487;BME280;7845;53.698;10.078;2023-03-29T08:19:28;101156.34;;;10.39;100.00
15487;BME280;7845;53.698;10.078;2023-03-29T08:21:53;101164.19;;;10.42;100.00
15487;BME280;7845;53.698;10.078;2023-03-29T08:24:18;101162.41;;;10.54;100.00
15487;BME280;7845;53.698;10.078;2023-03-29T08:26:44;101156.31;;;10.63;100.00
15487;BME280;7845;53.698;10.078;2023-03-29T08:29:09;101157.16;;;10.64;100.00
15487;BME280;7845;53.698;10.078;2023-03-29T08:31:36;101150.19;;;10.84;100.00
15487;BME280;7845;53.698;10.078;2023-03-29T08:34:02;101148.44;;;10.75;100.00
15487;BME280;7845;53.698;10.078;2023-03-29T08:36:27;101146.72;;;10.77;100.00
15487;BME280;7845;53.698;10.078;2023-03-29T08:38:54;101138.81;;;10.98;100.00
15487;BME280;7845;53.698;10.078;2023-03-29T08:41:48;101135.28;;;11.02;100.00
15487;BME280;7845;53.698;10.078;2023-03-29T08:44:27;101137.84;;;11.22;100.00
15487;BME280;7845;53.698;10.078;2023-03-29T08:47:18;101126.47;;;11.29;100.00
15487;BME280;7845;53.698;10.078;2023-03-29T08:49:51;101129.88;;;11.42;100.00
15487;BME280;7845;53.698;10.078;2023-03-29T08:52:34;101114.13;;;11.55;100.00
15487;BME280;7845;53.698;10.078;2023-03-29T08:55:05;101110.56;;;11.73;100.00
15487;BME280;7845;53.698;10.078;2023-03-29T08:57:44;101113.13;;;11.82;100.00
15487;BME280;7845;53.698;10.078;2023-03-29T09:00:28;101109.56;;;11.91;100.00
15487;BME280;7845;53.698;10.078;2023-03-29T09:02:56;101108.66;;;11.93;100.00
15487;BME280;7845;53.698;10.078;2023-03-29T09:05:37;101118.31;;;11.88;100.00
15487;BME280;7845;53.698;10.078;2023-03-29T09:08:11;101113.88;;;11.95;100.00
15487;BME280;7845;53.698;10.078;2023-03-29T09:11:32;101111.22;;;11.99;100.00
15487;BME280;7845;53.698;10.078;2023-03-29T09:16:46;101105.84;;;12.16;100.00
15487;BME280;7845;53.698;10.078;2023-03-29T09:19:35;101097.84;;;12.33;100.00
15487;BME280;7845;53.698;10.078;2023-03-29T09:25:08;101069.69;;;12.56;100.00
15487;BME280;7845;53.698;10.078;2023-03-29T09:36:22;101063.81;;;13.09;100.00
15487;BME280;7845;53.698;10.078;2023-03-29T09:38:28;101064.00;;;12.92;100.00
15487;BME280;7845;53.698;10.078;2023-03-29T09:41:03;101062.34;;;12.87;100.00
15487;BME280;7845;53.698;10.078;2023-03-29T09:43:35;101066.25;;;12.51;100.00
15487;BME280;7845;53.698;10.078;2023-03-29T09:46:05;101066.25;;;12.51;100.00
15487;BME280;7845;53.698;10.078;2023-03-29T09:48:37;101062.69;;;12.56;100.00
15487;BME280;7845;53.698;10.078;2023-03-29T09:51:05;101066.38;;;12.39;100.00
15487;BME280;7845;53.698;10.078;2023-03-29T09:53:33;101062.88;;;12.38;100.00
15487;BME280;7845;53.698;10.078;2023-03-29T09:55:59;101065.50;;;12.38;100.00
15487;BME280;7845;53.698;10.078;2023-03-29T09:58:28;101063.72;;;12.42;100.00
15487;BME280;7845;53.698;10.078;2023-03-29T10:00:58;101062.94;;;12.32;100.00
15487;BME280;7845;53.698;10.078;2023-03-29T10:03:26;101054.13;;;12.42;100.00
15487;BME280;7845;53.698;10.078;2023-03-29T10:05:56;101048.59;;;12.68;100.00
15487;BME280;7845;53.698;10.078;2023-03-29T10:08:46;101037.97;;;12.78;100.00
15487;BME280;7845;53.698;10.078;2023-03-29T10:11:21;101044.03;;;12.84;100.00
15487;BME280;7845;53.698;10.078;2023-03-29T10:13:50;101033.25;;;13.08;100.00
15487;BME280;7845;53.698;10.078;2023-03-29T10:16:21;101030.81;;;12.93;100.00
15487;BME280;7845;53.698;10.078;2023-03-29T10:18:47;101030.00;;;12.88;100.00
15487;BME280;7845;53.698;10.078;2023-03-29T10:21:16;101035.47;;;12.69;100.00
15487;BME280;7845;53.698;10.078;2023-03-29T10:23:43;101041.59;;;12.67;100.00
15487;BME280;7845;53.698;10.078;2023-03-29T10:26:35;101034.59;;;12.72;100.00
15487;BME280;7845;53.698;10.078;2023-03-29T10:29:04;101041.13;;;13.03;100.00
15487;BME280;7845;53.698;10.078;2023-03-29T10:31:31;101033.44;;;12.93;100.00
15487;BME280;7845;53.698;10.078;2023-03-29T10:34:01;101036.22;;;12.79;100.00
15487;BME280;7845;53.698;10.078;2023-03-29T10:36:28;101046.03;;;12.62;100.00
15487;BME280;7845;53.698;10.078;2023-03-29T10:38:56;101044.00;;;12.87;100.00
15487;BME280;7845;53.698;10.078;2023-03-29T10:41:25;101038.59;;;12.97;100.00
15487;BME280;7845;53.698;10.078;2023-03-29T10:43:51;101041.09;;;13.11;100.00
15487;BME280;7845;53.698;10.078;2023-03-29T10:46:31;101027.94;;;13.14;100.00
15487;BME280;7845;53.698;10.078;2023-03-29T10:49:13;101026.06;;;13.20;100.00
15487;BME280;7845;53.698;10.078;2023-03-29T10:51:46;101031.41;;;13.14;100.00
15487;BME280;7845;53.698;10.078;2023-03-29T10:54:14;101028.59;;;13.28;100.00
15487;BME280;7845;53.698;10.078;2023-03-29T10:56:45;101020.56;;;13.39;100.00
15487;BME280;7845;53.698;10.078;2023-03-29T10:59:26;101030.16;;;13.40;100.00
15487;BME280;7845;53.698;10.078;2023-03-29T11:07:30;101031.78;;;13.50;100.00
15487;BME280;7845;53.698;10.078;2023-03-29T11:21:08;101009.09;;;13.98;100.00
15487;BME280;7845;53.698;10.078;2023-03-29T11:23:44;101003.16;;;13.86;100.00
15487;BME280;7845;53.698;10.078;2023-03-29T11:35:40;101038.94;;;13.37;100.00
15487;BME280;7845;53.698;10.078;2023-03-29T11:44:02;101026.91;;;13.79;100.00
15487;BME280;7845;53.698;10.078;2023-03-29T11:46:37;101038.59;;;13.60;100.00
15487;BME280;7845;53.698;10.078;2023-03-29T11:49:10;101042.25;;;13.50;100.00
15487;BME280;7845;53.698;10.078;2023-03-29T11:51:42;101041.53;;;13.39;100.00
15487;BME280;7845;53.698;10.078;2023-03-29T11:54:17;101047.94;;;13.19;100.00
15487;BME280;7845;53.698;10.078;2023-03-29T11:57:18;101061.19;;;13.07;100.00
15487;BME280;7845;53.698;10.078;2023-03-29T11:59:57;101061.19;;;13.09;100.00
15487;BME280;7845;53.698;10.078;2023-03-29T12:02:35;101077.75;;;13.14;100.00
15487;BME280;7845;53.698;10.078;2023-03-29T12:05:12;101081.28;;;13.08;100.00
15487;BME280;7845;53.698;10.078;2023-03-29T12:07:55;101102.41;;;12.93;100.00
15487;BME280;7845;53.698;10.078;2023-03-29T12:10:37;101098.81;;;13.02;100.00
15487;BME280;7845;53.698;10.078;2023-03-29T12:13:29;101092.69;;;13.03;100.00
15487;BME280;7845;53.698;10.078;2023-03-29T12:16:05;101087.44;;;13.03;100.00
15487;BME280;7845;53.698;10.078;2023-03-29T12:18:41;101087.41;;;13.07;100.00
15487;BME280;7845;53.698;10.078;2023-03-29T12:21:19;101090.03;;;13.07;100.00
15487;BME280;7845;53.698;10.078;2023-03-29T12:23:46;101082.16;;;13.06;100.00
15487;BME280;7845;53.698;10.078;2023-03-29T12:26:34;101080.28;;;13.20;100.00
15487;BME280;7845;53.698;10.078;2023-03-29T12:32:15;101071.56;;;13.18;100.00
15487;BME280;7845;53.698;10.078;2023-03-29T12:35:21;101066.88;;;13.38;100.00
15487;BME280;7845;53.698;10.078;2023-03-29T12:38:14;101061.38;;;13.56;100.00
15487;BME280;7845;53.698;10.078;2023-03-29T12:40:52;101041.94;;;13.69;100.00
15487;BME280;7845;53.698;10.078;2023-03-29T12:43:32;101033.34;;;14.12;100.00
15487;BME280;7845;53.698;10.078;2023-03-29T12:46:29;101015.31;;;14.39;100.00
15487;BME280;7845;53.698;10.078;2023-03-29T12:49:06;101018.00;;;14.38;100.00
15487;BME280;7845;53.698;10.078;2023-03-29T12:51:35;101012.94;;;14.70;100.00
15487;BME280;7845;53.698;10.078;2023-03-29T12:54:19;101007.00;;;14.62;100.00
15487;BME280;7845;53.698;10.078;2023-03-29T12:59:24;100990.59;;;14.91;100.00
15487;BME280;7845;53.698;10.078;2023-03-29T13:02:01;100984.44;;;14.92;100.00
15487;BME280;7845;53.698;10.078;2023-03-29T13:04:54;100981.69;;;14.98;100.00
15487;BME280;7845;53.698;10.078;2023-03-29T13:10:05;100968.34;;;15.44;100.00
15487;BME280;7845;53.698;10.078;2023-03-29T13:12:40;100969.00;;;15.15;100.00
15487;BME280;7845;53.698;10.078;2023-03-29T13:15:21;100975.53;;;14.99;100.00
15487;BME280;7845;53.698;10.078;2023-03-29T13:21:05;100996.22;;;14.33;100.00
15487;BME280;7845;53.698;10.078;2023-03-29T13:23:50;101004.84;;;13.91;100.00
15487;BME280;7845;53.698;10.078;2023-03-29T13:32:01;101002.94;;;14.00;100.00
15487;BME280;7845;53.698;10.078;2023-03-29T13:34:47;101010.81;;;13.99;100.00
15487;BME280;7845;53.698;10.078;2023-03-29T13:39:53;101003.09;;;13.90;100.00
15487;BME280;7845;53.698;10.078;2023-03-29T13:45:12;101005.25;;;13.66;100.00
15487;BME280;7845;53.698;10.078;2023-03-29T13:47:43;101001.66;;;13.73;100.00
15487;BME280;7845;53.698;10.078;2023-03-29T13:50:19;100999.03;;;13.73;100.00
15487;BME280;7845;53.698;10.078;2023-03-29T13:55:23;101000.34;;;13.97;100.00
15487;BME280;7845;53.698;10.078;2023-03-29T14:00:58;100992.44;;;13.99;100.00
15487;BME280;7845;53.698;10.078;2023-03-29T14:03:27;100993.38;;;13.96;100.00
15487;BME280;7845;53.698;10.078;2023-03-29T14:06:01;100987.91;;;14.08;100.00
15487;BME280;7845;53.698;10.078;2023-03-29T14:08:32;100972.03;;;14.13;100.00
15487;BME280;7845;53.698;10.078;2023-03-29T14:11:02;100971.97;;;14.16;100.00
15487;BME280;7845;53.698;10.078;2023-03-29T14:13:29;100970.13;;;14.22;100.00
15487;BME280;7845;53.698;10.078;2023-03-29T14:16:11;100970.97;;;14.23;100.00
15487;BME280;7845;53.698;10.078;2023-03-29T14:18:38;100964.97;;;14.18;100.00
15487;BME280;7845;53.698;10.078;2023-03-29T14:21:06;100969.47;;;14.10;100.00
15487;BME280;7845;53.698;10.078;2023-03-29T14:23:35;100966.84;;;14.11;100.00
15487;BME280;7845;53.698;10.078;2023-03-29T14:26:08;100963.16;;;14.21;100.00
15487;BME280;7845;53.698;10.078;2023-03-29T14:28:42;100960.47;;;14.24;100.00
15487;BME280;7845;53.698;10.078;2023-03-29T14:31:16;100952.47;;;14.30;100.00